Willow Grove, Texas
Current Conditions -  °F | °C
As of 6:35 PM on Thursday 27 Nov 2014 (Local Time) from KTPL Reporting Station
Clear Clear  
Wind Chill: 52°   Ceiling: Unl
Heat Index: 52°   Visibility: 10mi
Dew Point: 27°   Wind: 0mph
Humidity: 38%   Direction: NA
Pressure: 30.4"   Gusts: NA
Location:  31.2688°N, 97.3985°W
Report Text: KTPL 280035Z AUTO 00000KT 10SM CLR 11/M03 A3040 RMK AO1
Loading
Personal Weather Stations






























Interactive Weather Map New forecast layout! Learn more

10-Day Weather Forecast

Advertisements
Track Severe Weather on mobile